sensor_id;sensor_type;location;lat;lon;timestamp;pressure;altitude;pressure_sealevel;temperature;humidity
73085;BME280;62974;49.460;10.892;2023-09-18T00:01:54;97354.19;;;19.15;97.66
73085;BME280;62974;49.460;10.892;2023-09-18T00:04:24;97357.31;;;18.87;100.00
73085;BME280;62974;49.460;10.892;2023-09-18T00:06:51;97347.13;;;19.19;97.84
73085;BME280;62974;49.460;10.892;2023-09-18T00:09:19;97354.28;;;19.31;95.05
73085;BME280;62974;49.460;10.892;2023-09-18T00:11:46;97358.84;;;19.20;97.10
73085;BME280;62974;49.460;10.892;2023-09-18T00:14:14;97358.34;;;18.76;100.00
73085;BME280;62974;49.460;10.892;2023-09-18T00:16:43;97342.25;;;19.21;94.78
73085;BME280;62974;49.460;10.892;2023-09-18T00:19:24;97344.31;;;18.99;99.50
73085;BME280;62974;49.460;10.892;2023-09-18T00:21:52;97340.00;;;19.08;97.55
73085;BME280;62974;49.460;10.892;2023-09-18T00:24:21;97330.56;;;19.26;94.38
73085;BME280;62974;49.460;10.892;2023-09-18T00:26:48;97326.22;;;19.30;94.14
73085;BME280;62974;49.460;10.892;2023-09-18T00:29:16;97317.97;;;19.05;98.01
73085;BME280;62974;49.460;10.892;2023-09-18T00:31:45;97316.09;;;19.10;96.19
73085;BME280;62974;49.460;10.892;2023-09-18T00:34:12;97321.84;;;19.24;93.68
73085;BME280;62974;49.460;10.892;2023-09-18T00:36:40;97317.38;;;18.98;97.55
73085;BME280;62974;49.460;10.892;2023-09-18T00:39:07;97316.59;;;19.02;96.14
73085;BME280;62974;49.460;10.892;2023-09-18T00:41:36;97304.91;;;19.07;96.40
73085;BME280;62974;49.460;10.892;2023-09-18T00:44:03;97309.31;;;18.61;100.00
73085;BME280;62974;49.460;10.892;2023-09-18T00:46:32;97310.56;;;18.90;98.16
73085;BME280;62974;49.460;10.892;2023-09-18T00:49:03;97308.06;;;18.84;100.00
73085;BME280;62974;49.460;10.892;2023-09-18T00:51:32;97304.16;;;18.64;100.00
73085;BME280;62974;49.460;10.892;2023-09-18T00:53:59;97299.97;;;18.99;96.20
73085;BME280;62974;49.460;10.892;2023-09-18T00:56:27;97297.22;;;18.94;99.19
73085;BME280;62974;49.460;10.892;2023-09-18T00:58:55;97288.03;;;19.10;94.65
73085;BME280;62974;49.460;10.892;2023-09-18T01:01:23;97276.34;;;19.09;94.39
73085;BME280;62974;49.460;10.892;2023-09-18T01:03:51;97280.66;;;19.00;98.64
73085;BME280;62974;49.460;10.892;2023-09-18T01:06:21;97281.63;;;18.79;100.00
73085;BME280;62974;49.460;10.892;2023-09-18T01:08:49;97282.47;;;18.74;100.00
73085;BME280;62974;49.460;10.892;2023-09-18T01:11:26;97269.75;;;18.43;100.00
73085;BME280;62974;49.460;10.892;2023-09-18T01:16:49;97278.41;;;18.82;99.04
73085;BME280;62974;49.460;10.892;2023-09-18T01:19:35;97277.91;;;18.90;99.62
73085;BME280;62974;49.460;10.892;2023-09-18T01:22:05;97282.19;;;18.71;100.00
73085;BME280;62974;49.460;10.892;2023-09-18T01:24:36;97277.03;;;18.80;99.27
73085;BME280;62974;49.460;10.892;2023-09-18T01:27:05;97264.53;;;18.84;97.55
73085;BME280;62974;49.460;10.892;2023-09-18T01:29:32;97278.41;;;18.35;100.00
73085;BME280;62974;49.460;10.892;2023-09-18T01:32:00;97271.59;;;18.85;98.83
73085;BME280;62974;49.460;10.892;2023-09-18T01:34:35;97270.00;;;18.89;96.90
73085;BME280;62974;49.460;10.892;2023-09-18T01:37:06;97268.19;;;18.15;100.00
73085;BME280;62974;49.460;10.892;2023-09-18T01:39:36;97267.78;;;18.81;97.36
73085;BME280;62974;49.460;10.892;2023-09-18T01:42:06;97266.38;;;18.68;100.00
73085;BME280;62974;49.460;10.892;2023-09-18T01:44:36;97270.44;;;18.23;100.00
73085;BME280;62974;49.460;10.892;2023-09-18T01:47:06;97260.41;;;18.29;100.00
73085;BME280;62974;49.460;10.892;2023-09-18T01:49:36;97265.19;;;18.07;100.00
73085;BME280;62974;49.460;10.892;2023-09-18T01:52:05;97264.56;;;18.00;100.00
73085;BME280;62974;49.460;10.892;2023-09-18T01:54:33;97248.13;;;18.58;100.00
73085;BME280;62974;49.460;10.892;2023-09-18T01:57:03;97253.88;;;18.72;97.91
73085;BME280;62974;49.460;10.892;2023-09-18T01:59:31;97257.09;;;18.64;98.10
73085;BME280;62974;49.460;10.892;2023-09-18T02:01:59;97254.81;;;18.46;100.00
73085;BME280;62974;49.460;10.892;2023-09-18T02:04:28;97245.41;;;18.63;98.24
73085;BME280;62974;49.460;10.892;2023-09-18T02:07:15;97246.13;;;18.02;100.00
73085;BME280;62974;49.460;10.892;2023-09-18T02:09:43;97239.25;;;18.36;100.00
73085;BME280;62974;49.460;10.892;2023-09-18T02:12:12;97245.28;;;18.43;100.00
73085;BME280;62974;49.460;10.892;2023-09-18T02:14:44;97236.84;;;18.45;100.00
73085;BME280;62974;49.460;10.892;2023-09-18T02:17:11;97242.75;;;18.31;100.00
73085;BME280;62974;49.460;10.892;2023-09-18T02:19:39;97235.03;;;18.55;98.19
73085;BME280;62974;49.460;10.892;2023-09-18T02:22:07;97234.09;;;18.40;98.59
73085;BME280;62974;49.460;10.892;2023-09-18T02:24:34;97224.63;;;18.42;99.16
73085;BME280;62974;49.460;10.892;2023-09-18T02:27:03;97224.06;;;18.45;98.68
73085;BME280;62974;49.460;10.892;2023-09-18T02:29:32;97222.38;;;18.29;100.00
73085;BME280;62974;49.460;10.892;2023-09-18T02:32:00;97228.75;;;18.08;100.00
73085;BME280;62974;49.460;10.892;2023-09-18T02:34:28;97214.63;;;18.53;97.83
73085;BME280;62974;49.460;10.892;2023-09-18T02:36:56;97211.91;;;18.06;100.00
73085;BME280;62974;49.460;10.892;2023-09-18T02:39:24;97212.31;;;18.29;100.00
73085;BME280;62974;49.460;10.892;2023-09-18T02:41:51;97215.72;;;18.57;96.63
73085;BME280;62974;49.460;10.892;2023-09-18T02:44:19;97216.59;;;18.62;95.30
73085;BME280;62974;49.460;10.892;2023-09-18T02:46:48;97222.03;;;18.62;94.83
73085;BME280;62974;49.460;10.892;2023-09-18T02:49:15;97218.72;;;18.60;94.85
73085;BME280;62974;49.460;10.892;2023-09-18T02:51:43;97223.00;;;18.51;96.32
73085;BME280;62974;49.460;10.892;2023-09-18T02:54:11;97217.25;;;17.91;100.00
73085;BME280;62974;49.460;10.892;2023-09-18T02:56:38;97202.84;;;18.42;96.95
73085;BME280;62974;49.460;10.892;2023-09-18T02:59:06;97206.22;;;18.54;95.12
73085;BME280;62974;49.460;10.892;2023-09-18T03:01:33;97212.19;;;18.56;94.48
73085;BME280;62974;49.460;10.892;2023-09-18T03:04:03;97202.38;;;18.55;94.66
73085;BME280;62974;49.460;10.892;2023-09-18T03:06:31;97194.50;;;18.54;94.56
73085;BME280;62974;49.460;10.892;2023-09-18T03:08:58;97194.19;;;18.50;94.50
73085;BME280;62974;49.460;10.892;2023-09-18T03:11:26;97194.19;;;18.50;94.42
73085;BME280;62974;49.460;10.892;2023-09-18T03:13:55;97190.84;;;18.33;97.24
73085;BME280;62974;49.460;10.892;2023-09-18T03:16:22;97181.94;;;18.48;94.98
73085;BME280;62974;49.460;10.892;2023-09-18T03:18:50;97173.78;;;17.91;100.00
73085;BME280;62974;49.460;10.892;2023-09-18T03:21:19;97169.78;;;18.08;98.73
73085;BME280;62974;49.460;10.892;2023-09-18T03:23:47;97158.91;;;18.08;98.94
73085;BME280;62974;49.460;10.892;2023-09-18T03:26:14;97162.25;;;18.20;97.04
73085;BME280;62974;49.460;10.892;2023-09-18T03:28:42;97170.97;;;18.27;96.07
73085;BME280;62974;49.460;10.892;2023-09-18T03:31:10;97171.94;;;18.01;99.11
73085;BME280;62974;49.460;10.892;2023-09-18T03:33:38;97169.06;;;18.23;96.41
73085;BME280;62974;49.460;10.892;2023-09-18T03:36:05;97174.66;;;18.01;97.30
73085;BME280;62974;49.460;10.892;2023-09-18T03:38:36;97161.16;;;18.21;96.19
73085;BME280;62974;49.460;10.892;2023-09-18T03:41:04;97153.75;;;18.12;97.82
73085;BME280;62974;49.460;10.892;2023-09-18T03:43:32;97155.94;;;17.31;100.00
73085;BME280;62974;49.460;10.892;2023-09-18T03:46:06;97147.41;;;17.86;100.00
73085;BME280;62974;49.460;10.892;2023-09-18T03:48:34;97139.00;;;17.93;99.50
73085;BME280;62974;49.460;10.892;2023-09-18T03:51:04;97138.84;;;18.19;96.15
73085;BME280;62974;49.460;10.892;2023-09-18T03:53:32;97135.88;;;18.21;95.61
73085;BME280;62974;49.460;10.892;2023-09-18T03:56:01;97138.59;;;18.21;95.48
73085;BME280;62974;49.460;10.892;2023-09-18T03:58:28;97153.50;;;18.13;95.37
73085;BME280;62974;49.460;10.892;2023-09-18T04:00:56;97152.16;;;18.11;95.29
73085;BME280;62974;49.460;10.892;2023-09-18T04:03:24;97149.19;;;18.17;95.36
73085;BME280;62974;49.460;10.892;2023-09-18T04:05:51;97152.44;;;18.14;94.73
73085;BME280;62974;49.460;10.892;2023-09-18T04:08:19;97156.50;;;18.17;94.62
73085;BME280;62974;49.460;10.892;2023-09-18T04:10:47;97164.63;;;18.12;95.69
73085;BME280;62974;49.460;10.892;2023-09-18T04:13:16;97211.00;;;17.90;99.22
73085;BME280;62974;49.460;10.892;2023-09-18T04:15:43;97186.91;;;15.94;100.00
73085;BME280;62974;49.460;10.892;2023-09-18T04:18:12;97156.31;;;15.77;100.00
73085;BME280;62974;49.460;10.892;2023-09-18T04:20:40;97148.34;;;17.33;100.00
73085;BME280;62974;49.460;10.892;2023-09-18T04:23:18;97136.50;;;17.81;100.00
73085;BME280;62974;49.460;10.892;2023-09-18T04:25:46;97157.97;;;17.88;100.00
73085;BME280;62974;49.460;10.892;2023-09-18T04:28:15;97140.38;;;17.95;100.00
73085;BME280;62974;49.460;10.892;2023-09-18T04:30:43;97137.03;;;17.46;100.00
73085;BME280;62974;49.460;10.892;2023-09-18T04:33:12;97125.16;;;17.94;100.00
73085;BME280;62974;49.460;10.892;2023-09-18T04:35:41;97119.75;;;18.04;99.81
73085;BME280;62974;49.460;10.892;2023-09-18T04:38:08;97117.59;;;18.01;99.63
73085;BME280;62974;49.460;10.892;2023-09-18T04:40:37;97108.94;;;17.62;100.00
73085;BME280;62974;49.460;10.892;2023-09-18T04:43:07;97083.44;;;17.63;100.00
73085;BME280;62974;49.460;10.892;2023-09-18T04:45:36;97090.03;;;17.41;100.00
73085;BME280;62974;49.460;10.892;2023-09-18T04:48:04;97098.78;;;17.90;100.00
73085;BME280;62974;49.460;10.892;2023-09-18T04:50:34;97123.75;;;17.87;100.00
73085;BME280;62974;49.460;10.892;2023-09-18T04:53:02;97197.84;;;16.86;100.00
73085;BME280;62974;49.460;10.892;2023-09-18T04:55:30;97192.97;;;16.45;100.00
73085;BME280;62974;49.460;10.892;2023-09-18T04:57:58;97191.41;;;17.24;100.00
73085;BME280;62974;49.460;10.892;2023-09-18T05:00:26;97189.47;;;16.66;100.00
73085;BME280;62974;49.460;10.892;2023-09-18T05:02:57;97177.44;;;16.57;100.00
73085;BME280;62974;49.460;10.892;2023-09-18T05:05:27;97175.94;;;17.57;100.00
73085;BME280;62974;49.460;10.892;2023-09-18T05:07:56;97165.97;;;17.62;100.00
73085;BME280;62974;49.460;10.892;2023-09-18T05:10:23;97169.41;;;17.90;100.00
73085;BME280;62974;49.460;10.892;2023-09-18T05:12:51;97181.69;;;17.97;100.00
73085;BME280;62974;49.460;10.892;2023-09-18T05:15:25;97174.09;;;18.04;100.00
73085;BME280;62974;49.460;10.892;2023-09-18T05:17:57;97186.03;;;17.98;100.00
73085;BME280;62974;49.460;10.892;2023-09-18T05:20:27;97198.06;;;18.07;100.00
73085;BME280;62974;49.460;10.892;2023-09-18T05:22:56;97211.94;;;18.11;100.00
73085;BME280;62974;49.460;10.892;2023-09-18T05:25:26;97218.50;;;18.15;99.93
73085;BME280;62974;49.460;10.892;2023-09-18T05:27:54;97230.53;;;17.92;100.00
73085;BME280;62974;49.460;10.892;2023-09-18T05:30:26;97227.81;;;17.87;100.00
73085;BME280;62974;49.460;10.892;2023-09-18T05:32:57;97238.94;;;17.86;100.00
73085;BME280;62974;49.460;10.892;2023-09-18T05:35:31;97233.56;;;17.59;100.00
73085;BME280;62974;49.460;10.892;2023-09-18T05:37:58;97235.28;;;16.89;100.00
73085;BME280;62974;49.460;10.892;2023-09-18T05:40:26;97234.38;;;17.32;100.00
73085;BME280;62974;49.460;10.892;2023-09-18T05:42:54;97229.06;;;17.74;100.00
73085;BME280;62974;49.460;10.892;2023-09-18T05:45:22;97222.94;;;17.89;100.00
73085;BME280;62974;49.460;10.892;2023-09-18T05:47:50;97205.94;;;17.72;100.00
73085;BME280;62974;49.460;10.892;2023-09-18T05:50:21;97197.75;;;17.03;100.00
73085;BME280;62974;49.460;10.892;2023-09-18T05:52:48;97195.94;;;17.77;100.00
73085;BME280;62974;49.460;10.892;2023-09-18T05:55:16;97208.59;;;17.99;100.00
73085;BME280;62974;49.460;10.892;2023-09-18T05:57:44;97201.91;;;17.16;100.00
73085;BME280;62974;49.460;10.892;2023-09-18T06:00:12;97196.09;;;17.61;100.00
73085;BME280;62974;49.460;10.892;2023-09-18T06:02:40;97192.94;;;17.74;100.00
73085;BME280;62974;49.460;10.892;2023-09-18T06:05:08;97186.25;;;17.92;100.00
73085;BME280;62974;49.460;10.892;2023-09-18T06:07:39;97187.91;;;17.93;100.00
73085;BME280;62974;49.460;10.892;2023-09-18T06:10:07;97194.66;;;17.85;100.00
73085;BME280;62974;49.460;10.892;2023-09-18T06:12:37;97187.44;;;18.06;100.00
73085;BME280;62974;49.460;10.892;2023-09-18T06:15:06;97187.81;;;18.24;100.00
73085;BME280;62974;49.460;10.892;2023-09-18T06:17:37;97193.88;;;17.26;100.00
73085;BME280;62974;49.460;10.892;2023-09-18T06:20:07;97192.00;;;17.58;100.00
73085;BME280;62974;49.460;10.892;2023-09-18T06:22:37;97176.25;;;17.97;100.00
73085;BME280;62974;49.460;10.892;2023-09-18T06:25:07;97188.97;;;17.87;100.00
73085;BME280;62974;49.460;10.892;2023-09-18T06:27:37;97188.31;;;18.16;100.00
73085;BME280;62974;49.460;10.892;2023-09-18T06:30:06;97189.00;;;17.97;100.00
73085;BME280;62974;49.460;10.892;2023-09-18T06:32:34;97191.56;;;18.13;100.00
73085;BME280;62974;49.460;10.892;2023-09-18T06:35:04;97207.94;;;18.28;100.00
73085;BME280;62974;49.460;10.892;2023-09-18T06:37:31;97207.53;;;18.05;100.00
73085;BME280;62974;49.460;10.892;2023-09-18T06:39:59;97209.88;;;17.86;100.00
73085;BME280;62974;49.460;10.892;2023-09-18T06:42:31;97200.88;;;18.27;100.00
73085;BME280;62974;49.460;10.892;2023-09-18T06:44:59;97200.56;;;18.24;100.00
73085;BME280;62974;49.460;10.892;2023-09-18T06:47:27;97204.28;;;17.66;100.00
73085;BME280;62974;49.460;10.892;2023-09-18T06:49:55;97202.09;;;18.05;100.00
73085;BME280;62974;49.460;10.892;2023-09-18T06:52:23;97198.44;;;18.26;100.00
73085;BME280;62974;49.460;10.892;2023-09-18T06:54:51;97194.88;;;18.25;100.00
73085;BME280;62974;49.460;10.892;2023-09-18T06:57:19;97191.09;;;18.26;100.00
73085;BME280;62974;49.460;10.892;2023-09-18T06:59:48;97190.06;;;18.38;100.00
73085;BME280;62974;49.460;10.892;2023-09-18T07:02:16;97196.03;;;18.35;100.00
73085;BME280;62974;49.460;10.892;2023-09-18T07:04:44;97196.59;;;18.42;100.00
73085;BME280;62974;49.460;10.892;2023-09-18T07:07:12;97190.44;;;18.56;100.00
73085;BME280;62974;49.460;10.892;2023-09-18T07:09:40;97199.16;;;18.63;100.00
73085;BME280;62974;49.460;10.892;2023-09-18T07:12:28;97198.69;;;18.82;100.00
73085;BME280;62974;49.460;10.892;2023-09-18T07:14:58;97198.97;;;18.85;100.00
73085;BME280;62974;49.460;10.892;2023-09-18T07:17:26;97198.47;;;18.98;100.00
73085;BME280;62974;49.460;10.892;2023-09-18T07:19:53;97194.13;;;19.02;100.00
73085;BME280;62974;49.460;10.892;2023-09-18T07:22:21;97202.75;;;18.84;100.00
73085;BME280;62974;49.460;10.892;2023-09-18T07:24:49;97203.91;;;19.03;100.00
73085;BME280;62974;49.460;10.892;2023-09-18T07:27:16;97191.41;;;19.12;100.00
73085;BME280;62974;49.460;10.892;2023-09-18T07:29:44;97175.34;;;19.31;100.00
73085;BME280;62974;49.460;10.892;2023-09-18T07:32:13;97165.59;;;19.50;100.00
73085;BME280;62974;49.460;10.892;2023-09-18T07:34:55;97160.94;;;19.41;100.00
73085;BME280;62974;49.460;10.892;2023-09-18T07:37:23;97164.78;;;19.50;100.00
73085;BME280;62974;49.460;10.892;2023-09-18T07:39:50;97180.25;;;19.39;100.00
73085;BME280;62974;49.460;10.892;2023-09-18T07:42:18;97189.84;;;19.62;100.00
73085;BME280;62974;49.460;10.892;2023-09-18T07:44:45;97183.28;;;19.48;100.00
73085;BME280;62974;49.460;10.892;2023-09-18T07:47:14;97204.50;;;19.41;100.00
73085;BME280;62974;49.460;10.892;2023-09-18T07:49:42;97215.97;;;19.48;100.00
73085;BME280;62974;49.460;10.892;2023-09-18T07:52:09;97193.66;;;19.66;100.00
73085;BME280;62974;49.460;10.892;2023-09-18T07:54:37;97192.03;;;19.65;100.00
73085;BME280;62974;49.460;10.892;2023-09-18T07:57:05;97198.56;;;19.69;100.00
73085;BME280;62974;49.460;10.892;2023-09-18T07:59:35;97207.25;;;19.91;100.00
73085;BME280;62974;49.460;10.892;2023-09-18T08:02:05;97204.53;;;19.86;100.00
73085;BME280;62974;49.460;10.892;2023-09-18T08:04:34;97201.28;;;19.94;100.00
73085;BME280;62974;49.460;10.892;2023-09-18T08:07:02;97200.41;;;20.29;100.00
73085;BME280;62974;49.460;10.892;2023-09-18T08:09:32;97206.69;;;20.09;100.00
73085;BME280;62974;49.460;10.892;2023-09-18T08:12:02;97202.84;;;20.10;100.00
73085;BME280;62974;49.460;10.892;2023-09-18T08:14:30;97197.38;;;20.15;100.00
73085;BME280;62974;49.460;10.892;2023-09-18T08:16:58;97198.50;;;20.30;100.00
73085;BME280;62974;49.460;10.892;2023-09-18T08:19:26;97212.50;;;20.77;100.00
73085;BME280;62974;49.460;10.892;2023-09-18T08:21:55;97214.81;;;20.35;100.00
73085;BME280;62974;49.460;10.892;2023-09-18T08:24:23;97223.84;;;20.30;100.00
73085;BME280;62974;49.460;10.892;2023-09-18T08:26:51;97223.81;;;20.45;100.00
73085;BME280;62974;49.460;10.892;2023-09-18T08:29:18;97217.72;;;20.69;100.00
73085;BME280;62974;49.460;10.892;2023-09-18T08:31:46;97221.09;;;20.35;100.00
73085;BME280;62974;49.460;10.892;2023-09-18T08:34:14;97220.00;;;20.31;100.00
73085;BME280;62974;49.460;10.892;2023-09-18T08:36:42;97221.09;;;20.40;100.00
73085;BME280;62974;49.460;10.892;2023-09-18T08:39:11;97231.38;;;20.63;100.00
73085;BME280;62974;49.460;10.892;2023-09-18T08:41:42;97232.78;;;20.51;100.00
73085;BME280;62974;49.460;10.892;2023-09-18T08:44:10;97229.78;;;20.57;100.00
73085;BME280;62974;49.460;10.892;2023-09-18T08:46:37;97222.09;;;21.24;100.00
73085;BME280;62974;49.460;10.892;2023-09-18T08:49:06;97219.69;;;21.56;94.99
73085;BME280;62974;49.460;10.892;2023-09-18T08:51:35;97222.56;;;21.36;96.44
73085;BME280;62974;49.460;10.892;2023-09-18T08:54:04;97202.69;;;21.64;91.16
73085;BME280;62974;49.460;10.892;2023-09-18T08:56:34;97215.38;;;21.84;95.50
73085;BME280;62974;49.460;10.892;2023-09-18T08:59:01;97223.81;;;21.53;93.22
73085;BME280;62974;49.460;10.892;2023-09-18T09:01:29;97223.38;;;21.41;93.97
73085;BME280;62974;49.460;10.892;2023-09-18T09:03:57;97227.09;;;21.50;92.09
73085;BME280;62974;49.460;10.892;2023-09-18T09:06:26;97217.41;;;21.68;92.19
73085;BME280;62974;49.460;10.892;2023-09-18T09:08:55;97213.09;;;21.91;86.40
73085;BME280;62974;49.460;10.892;2023-09-18T09:11:22;97231.13;;;21.58;90.76
73085;BME280;62974;49.460;10.892;2023-09-18T09:14:08;97222.56;;;21.70;90.90
73085;BME280;62974;49.460;10.892;2023-09-18T09:16:38;97217.22;;;21.54;90.51
73085;BME280;62974;49.460;10.892;2023-09-18T09:19:06;97196.97;;;22.23;86.69
73085;BME280;62974;49.460;10.892;2023-09-18T09:21:38;97180.81;;;22.22;85.77
73085;BME280;62974;49.460;10.892;2023-09-18T09:24:06;97175.66;;;22.44;85.10
73085;BME280;62974;49.460;10.892;2023-09-18T09:26:34;97165.31;;;22.41;81.58
73085;BME280;62974;49.460;10.892;2023-09-18T09:29:16;97170.69;;;22.46;80.59
73085;BME280;62974;49.460;10.892;2023-09-18T09:31:45;97173.56;;;22.60;79.92
73085;BME280;62974;49.460;10.892;2023-09-18T09:34:13;97174.38;;;22.84;74.18
73085;BME280;62974;49.460;10.892;2023-09-18T09:36:52;97169.06;;;22.92;72.67
73085;BME280;62974;49.460;10.892;2023-09-18T09:39:20;97175.03;;;23.13;71.22
73085;BME280;62974;49.460;10.892;2023-09-18T09:41:51;97183.47;;;22.79;71.51
73085;BME280;62974;49.460;10.892;2023-09-18T09:44:20;97177.16;;;22.79;70.33
73085;BME280;62974;49.460;10.892;2023-09-18T09:46:49;97192.91;;;22.68;72.62
73085;BME280;62974;49.460;10.892;2023-09-18T09:49:18;97206.44;;;22.55;74.32
73085;BME280;62974;49.460;10.892;2023-09-18T09:51:47;97206.34;;;22.65;72.55
73085;BME280;62974;49.460;10.892;2023-09-18T09:54:31;97209.66;;;22.62;71.30
73085;BME280;62974;49.460;10.892;2023-09-18T09:57:02;97208.59;;;22.58;74.39
73085;BME280;62974;49.460;10.892;2023-09-18T09:59:31;97206.63;;;22.39;75.15
73085;BME280;62974;49.460;10.892;2023-09-18T10:02:01;97207.97;;;22.66;73.60
73085;BME280;62974;49.460;10.892;2023-09-18T10:04:31;97215.94;;;22.62;74.35
73085;BME280;62974;49.460;10.892;2023-09-18T10:07:05;97224.84;;;22.25;76.47
73085;BME280;62974;49.460;10.892;2023-09-18T10:09:35;97225.09;;;22.29;76.71
73085;BME280;62974;49.460;10.892;2023-09-18T10:12:06;97228.94;;;22.28;77.04
73085;BME280;62974;49.460;10.892;2023-09-18T10:14:39;97223.19;;;22.29;76.90
73085;BME280;62974;49.460;10.892;2023-09-18T10:17:27;97222.88;;;22.31;77.99
73085;BME280;62974;49.460;10.892;2023-09-18T10:20:01;97218.06;;;22.70;73.73
73085;BME280;62974;49.460;10.892;2023-09-18T10:22:44;97225.75;;;22.92;75.09
73085;BME280;62974;49.460;10.892;2023-09-18T10:25:14;97221.50;;;22.81;75.56
73085;BME280;62974;49.460;10.892;2023-09-18T10:27:46;97222.19;;;22.91;74.93
73085;BME280;62974;49.460;10.892;2023-09-18T10:30:17;97228.00;;;23.09;70.53
73085;BME280;62974;49.460;10.892;2023-09-18T10:32:45;97236.75;;;22.87;74.64
73085;BME280;62974;49.460;10.892;2023-09-18T10:35:15;97248.06;;;22.57;74.51
73085;BME280;62974;49.460;10.892;2023-09-18T10:37:45;97245.81;;;22.59;75.57
73085;BME280;62974;49.460;10.892;2023-09-18T10:40:13;97253.31;;;22.77;74.73
73085;BME280;62974;49.460;10.892;2023-09-18T10:42:41;97265.44;;;22.42;76.76
73085;BME280;62974;49.460;10.892;2023-09-18T10:45:11;97261.97;;;22.60;73.79
73085;BME280;62974;49.460;10.892;2023-09-18T10:47:42;97268.13;;;22.47;74.60
73085;BME280;62974;49.460;10.892;2023-09-18T10:50:12;97271.13;;;22.45;74.11
73085;BME280;62974;49.460;10.892;2023-09-18T10:52:42;97274.56;;;22.32;74.49
73085;BME280;62974;49.460;10.892;2023-09-18T10:55:12;97268.91;;;22.24;73.03
73085;BME280;62974;49.460;10.892;2023-09-18T10:57:50;97263.50;;;22.42;71.04
73085;BME280;62974;49.460;10.892;2023-09-18T11:00:18;97265.50;;;22.37;71.86
73085;BME280;62974;49.460;10.892;2023-09-18T11:02:51;97269.91;;;22.33;73.01
73085;BME280;62974;49.460;10.892;2023-09-18T11:05:29;97260.59;;;22.58;69.99
73085;BME280;62974;49.460;10.892;2023-09-18T11:08:28;97279.03;;;22.23;72.23
73085;BME280;62974;49.460;10.892;2023-09-18T11:11:02;97280.38;;;22.26;68.35
73085;BME280;62974;49.460;10.892;2023-09-18T11:13:38;97274.41;;;22.19;68.90
73085;BME280;62974;49.460;10.892;2023-09-18T11:16:16;97281.22;;;21.92;69.46
73085;BME280;62974;49.460;10.892;2023-09-18T11:18:52;97279.34;;;21.83;70.32
73085;BME280;62974;49.460;10.892;2023-09-18T11:21:24;97289.22;;;21.79;69.21
73085;BME280;62974;49.460;10.892;2023-09-18T11:23:59;97275.53;;;21.79;66.85
73085;BME280;62974;49.460;10.892;2023-09-18T11:26:30;97269.34;;;21.68;67.34
73085;BME280;62974;49.460;10.892;2023-09-18T11:28:59;97283.84;;;21.69;69.78
73085;BME280;62974;49.460;10.892;2023-09-18T11:31:41;97297.28;;;21.60;71.23
73085;BME280;62974;49.460;10.892;2023-09-18T11:34:13;97288.75;;;21.67;70.67
73085;BME280;62974;49.460;10.892;2023-09-18T11:36:41;97299.47;;;21.58;71.82
73085;BME280;62974;49.460;10.892;2023-09-18T11:39:09;97306.00;;;21.62;71.63
73085;BME280;62974;49.460;10.892;2023-09-18T11:41:39;97303.31;;;21.57;71.45
73085;BME280;62974;49.460;10.892;2023-09-18T11:44:32;97306.34;;;21.50;71.13
73085;BME280;62974;49.460;10.892;2023-09-18T11:47:07;97318.16;;;21.41;73.92
73085;BME280;62974;49.460;10.892;2023-09-18T11:49:36;97334.50;;;21.46;73.57
73085;BME280;62974;49.460;10.892;2023-09-18T11:52:05;97359.75;;;21.28;78.14
73085;BME280;62974;49.460;10.892;2023-09-18T11:54:33;97386.03;;;21.14;87.17
73085;BME280;62974;49.460;10.892;2023-09-18T11:57:05;97384.41;;;20.82;88.73
73085;BME280;62974;49.460;10.892;2023-09-18T11:59:38;97393.47;;;20.73;93.43
73085;BME280;62974;49.460;10.892;2023-09-18T12:02:10;97393.47;;;20.22;99.77
73085;BME280;62974;49.460;10.892;2023-09-18T12:04:48;97392.34;;;20.28;100.00
73085;BME280;62974;49.460;10.892;2023-09-18T12:07:15;97383.06;;;20.04;100.00
73085;BME280;62974;49.460;10.892;2023-09-18T12:09:45;97390.44;;;19.93;100.00
73085;BME280;62974;49.460;10.892;2023-09-18T12:12:14;97381.44;;;20.08;100.00
73085;BME280;62974;49.460;10.892;2023-09-18T12:14:42;97402.66;;;19.91;100.00
73085;BME280;62974;49.460;10.892;2023-09-18T12:17:14;97403.94;;;19.53;100.00
73085;BME280;62974;49.460;10.892;2023-09-18T12:19:52;97407.31;;;19.95;100.00
73085;BME280;62974;49.460;10.892;2023-09-18T12:22:24;97397.00;;;20.02;100.00
73085;BME280;62974;49.460;10.892;2023-09-18T12:24:52;97397.72;;;19.73;100.00
73085;BME280;62974;49.460;10.892;2023-09-18T12:27:19;97396.63;;;19.58;100.00
73085;BME280;62974;49.460;10.892;2023-09-18T12:29:47;97388.56;;;19.32;100.00
73085;BME280;62974;49.460;10.892;2023-09-18T12:32:15;97380.81;;;19.65;100.00
73085;BME280;62974;49.460;10.892;2023-09-18T12:34:43;97379.75;;;19.87;100.00
73085;BME280;62974;49.460;10.892;2023-09-18T12:37:12;97387.03;;;18.94;100.00
73085;BME280;62974;49.460;10.892;2023-09-18T12:39:40;97383.19;;;19.47;100.00
73085;BME280;62974;49.460;10.892;2023-09-18T12:42:08;97390.38;;;19.73;100.00
73085;BME280;62974;49.460;10.892;2023-09-18T12:44:35;97386.59;;;19.89;100.00
73085;BME280;62974;49.460;10.892;2023-09-18T12:47:03;97390.88;;;19.60;100.00
73085;BME280;62974;49.460;10.892;2023-09-18T12:49:32;97384.84;;;19.48;100.00
73085;BME280;62974;49.460;10.892;2023-09-18T12:52:01;97379.19;;;19.69;100.00
73085;BME280;62974;49.460;10.892;2023-09-18T12:54:41;97380.06;;;19.95;100.00
73085;BME280;62974;49.460;10.892;2023-09-18T12:57:15;97360.94;;;19.70;100.00
73085;BME280;62974;49.460;10.892;2023-09-18T12:59:43;97365.81;;;19.63;100.00
73085;BME280;62974;49.460;10.892;2023-09-18T13:02:13;97361.50;;;19.72;100.00